createdAt,value
2018-04-09T00:00:51.191Z,1002.95
2018-04-09T00:02:01.172Z,1002.96
2018-04-09T00:03:10.888Z,1002.94
2018-04-09T00:04:20.338Z,1002.99
2018-04-09T00:05:29.789Z,1003
2018-04-09T00:06:39.776Z,1002.98
2018-04-09T00:07:49.478Z,1002.98
2018-04-09T00:08:59.190Z,1002.96
2018-04-09T00:10:08.906Z,1002.96
2018-04-09T00:11:18.867Z,1002.92
2018-04-09T00:12:28.574Z,1002.95
2018-04-09T00:13:38.277Z,1002.9
2018-04-09T00:14:48.243Z,1002.93
2018-04-09T00:15:57.954Z,1002.94
2018-04-09T00:17:07.917Z,1002.96
2018-04-09T00:18:17.885Z,1002.97
2018-04-09T00:19:27.593Z,1003.01
2018-04-09T00:20:37.044Z,1002.98
2018-04-09T00:21:46.762Z,1003.03
2018-04-09T00:22:56.738Z,1003.11
2018-04-09T00:24:06.700Z,1003.04
2018-04-09T00:25:16.674Z,1003.08
2018-04-09T00:26:26.637Z,1003.01
2018-04-09T00:27:36.351Z,1003.01
2018-04-09T00:28:46.053Z,1003.01
2018-04-09T00:29:55.754Z,1003
2018-04-09T00:31:05.745Z,1002.94
2018-04-09T00:32:15.471Z,1002.94
2018-04-09T00:33:25.178Z,1002.91
2018-04-09T00:34:35.140Z,1002.87
2018-04-09T00:35:44.851Z,1002.84
2018-04-09T00:36:54.820Z,1002.82
2018-04-09T00:38:04.788Z,1002.77
2018-04-09T00:39:14.745Z,1002.8
2018-04-09T00:40:24.463Z,1002.81
2018-04-09T00:41:34.167Z,1002.8
2018-04-09T00:42:43.867Z,1002.79
2018-04-09T00:43:53.829Z,1002.85
2018-04-09T00:45:03.274Z,1002.79
2018-04-09T00:46:13.255Z,1002.83
2018-04-09T00:47:22.962Z,1002.85
2018-04-09T00:48:32.666Z,1002.83
2018-04-09T00:49:42.621Z,1002.84
2018-04-09T00:50:52.588Z,1002.77
2018-04-09T00:52:02.288Z,1002.76
2018-04-09T00:53:11.999Z,1002.76
2018-04-09T00:54:21.953Z,1002.76
2018-04-09T00:55:31.686Z,1002.71
2018-04-09T00:56:41.652Z,1002.73
2018-04-09T00:57:51.613Z,1002.74
2018-04-09T00:59:01.323Z,1002.79
2018-04-09T01:00:11.286Z,1002.83
2018-04-09T01:01:21.263Z,1002.81
2018-04-09T01:02:30.977Z,1002.94
2018-04-09T01:03:40.940Z,1002.85
2018-04-09T01:04:50.384Z,1002.85
2018-04-09T01:06:00.355Z,1002.8
2018-04-09T01:07:10.309Z,1002.8
2018-04-09T01:08:20.270Z,1002.75
2018-04-09T01:09:29.978Z,1002.73
2018-04-09T01:10:39.951Z,1002.76
2018-04-09T01:11:49.920Z,1002.76
2018-04-09T01:12:59.898Z,1002.76
2018-04-09T01:14:09.862Z,1002.71
2018-04-09T01:15:19.565Z,1002.76
2018-04-09T01:16:29.535Z,1002.71
2018-04-09T01:17:39.501Z,1002.72
2018-04-09T01:18:49.474Z,1002.77
2018-04-09T01:19:59.188Z,1002.77
2018-04-09T01:21:08.901Z,1002.76
2018-04-09T01:22:18.600Z,1002.75
2018-04-09T01:23:28.303Z,1002.74
2018-04-09T01:24:38.009Z,1002.73
2018-04-09T01:25:47.973Z,1002.74
2018-04-09T01:26:57.412Z,1002.74
2018-04-09T01:28:07.373Z,1002.76
2018-04-09T01:29:17.072Z,1002.75
2018-04-09T01:30:27.042Z,1002.77
2018-04-09T01:31:37.018Z,1002.78
2018-04-09T01:32:46.455Z,1002.79
2018-04-09T01:33:56.159Z,1002.77
2018-04-09T01:35:05.864Z,1002.78
2018-04-09T01:36:15.826Z,1002.77
2018-04-09T01:37:25.786Z,1002.73
2018-04-09T01:38:35.735Z,1002.78
2018-04-09T01:39:45.687Z,1002.76
2018-04-09T01:40:55.646Z,1002.73
2018-04-09T01:42:05.349Z,1002.7
2018-04-09T01:43:15.303Z,1002.76
2018-04-09T01:44:24.756Z,1002.69
2018-04-09T01:45:34.721Z,1002.65
2018-04-09T01:46:44.424Z,1002.66
2018-04-09T01:47:54.385Z,1002.65
2018-04-09T01:49:04.096Z,1002.66
2018-04-09T01:50:14.055Z,1002.65
2018-04-09T01:51:23.873Z,1002.7
2018-04-09T01:52:33.329Z,1002.66
2018-04-09T01:53:43.300Z,1002.61
2018-04-09T01:54:53.268Z,1002.62
2018-04-09T01:56:03.230Z,1002.6
2018-04-09T01:57:13.189Z,1002.6
2018-04-09T01:58:23.154Z,1002.57
2018-04-09T01:59:32.608Z,1002.57
2018-04-09T02:00:42.572Z,1002.57
2018-04-09T02:01:52.267Z,1002.57
2018-04-09T02:03:01.714Z,1002.6
2018-04-09T02:04:11.680Z,1002.56
2018-04-09T02:05:21.650Z,1002.62
2018-04-09T02:06:31.367Z,1002.64
2018-04-09T02:07:41.078Z,1002.58
2018-04-09T02:08:51.030Z,1002.62
2018-04-09T02:10:01.068Z,1002.62
2018-04-09T02:11:10.260Z,1002.52
2018-04-09T02:12:20.232Z,1002.55
2018-04-09T02:13:29.438Z,1002.56
2018-04-09T02:14:38.886Z,1002.56
2018-04-09T02:15:48.593Z,1002.56
2018-04-09T02:16:58.301Z,1002.51
2018-04-09T02:18:08.271Z,1002.55
2018-04-09T02:19:18.227Z,1002.53
2018-04-09T02:20:28.191Z,1002.48
2018-04-09T02:21:37.628Z,1002.43
2018-04-09T02:22:47.587Z,1002.46
2018-04-09T02:23:57.023Z,1002.42
2018-04-09T02:25:06.747Z,1002.42
2018-04-09T02:26:16.716Z,1002.44
2018-04-09T02:27:26.428Z,1002.43
2018-04-09T02:28:36.410Z,1002.45
2018-04-09T02:29:46.102Z,1002.41
2018-04-09T02:30:56.062Z,1002.4
2018-04-09T02:32:05.260Z,1002.37
2018-04-09T02:33:14.966Z,1002.35
2018-04-09T02:34:24.676Z,1002.32
2018-04-09T02:35:34.668Z,1002.32
2018-04-09T02:36:44.382Z,1002.35
2018-04-09T02:37:54.116Z,1002.32
2018-04-09T02:39:03.817Z,1002.31
2018-04-09T02:40:13.553Z,1002.3
2018-04-09T02:41:23.269Z,1002.33
2018-04-09T02:42:32.982Z,1002.32
2018-04-09T02:43:42.941Z,1002.31
2018-04-09T02:44:52.926Z,1002.28
2018-04-09T02:46:02.901Z,1002.26
2018-04-09T02:47:12.632Z,1002.24
2018-04-09T02:48:22.586Z,1002.2
2018-04-09T02:49:32.566Z,1002.18
2018-04-09T02:50:42.525Z,1002.17
2018-04-09T02:51:52.241Z,1002.17
2018-04-09T02:53:01.935Z,1002.19
2018-04-09T02:54:11.638Z,1002.21
2018-04-09T02:55:21.346Z,1002.22
2018-04-09T02:56:31.315Z,1002.2
2018-04-09T02:57:41.646Z,1002.2
2018-04-09T02:58:51.097Z,1002.19
2018-04-09T03:00:00.543Z,1002.16
2018-04-09T03:01:09.998Z,1002.18
2018-04-09T03:02:19.458Z,1002.16
2018-04-09T03:03:29.179Z,1002.1
2018-04-09T03:04:39.155Z,1002.11
2018-04-09T03:05:49.132Z,1002.09
2018-04-09T03:06:58.840Z,1002.07
2018-04-09T03:08:08.311Z,1002.08
2018-04-09T03:09:18.373Z,1002.07
2018-04-09T03:10:27.602Z,1002.11
2018-04-09T03:11:37.329Z,1002.1
2018-04-09T03:12:47.341Z,1002.16
2018-04-09T03:13:57.043Z,1002.13
2018-04-09T03:15:07.019Z,1002.16
2018-04-09T03:16:17.000Z,1002.12
2018-04-09T03:17:26.445Z,1002.17
2018-04-09T03:18:36.402Z,1002.21
2018-04-09T03:19:46.114Z,1002.22
2018-04-09T03:20:55.563Z,1002.21
2018-04-09T03:22:05.528Z,1002.23
2018-04-09T03:23:15.233Z,1002.23
2018-04-09T03:24:25.251Z,1002.15
2018-04-09T03:25:34.954Z,1002.17
2018-04-09T03:26:44.395Z,1002.1
2018-04-09T03:27:54.379Z,1002.07
2018-04-09T03:29:03.828Z,1002.06
2018-04-09T03:30:13.795Z,1002.06
2018-04-09T03:31:23.785Z,1002.09
2018-04-09T03:32:33.780Z,1002.09
2018-04-09T03:33:43.739Z,1002.1
2018-04-09T03:34:53.480Z,1002.09
2018-04-09T03:36:02.924Z,1002.1
2018-04-09T03:37:12.634Z,1002.12
2018-04-09T03:38:22.330Z,1002.17
2018-04-09T03:39:31.769Z,1002.17
2018-04-09T03:40:41.743Z,1002.24
2018-04-09T03:41:51.707Z,1002.22
2018-04-09T03:43:01.410Z,1002.29
2018-04-09T03:44:11.120Z,1002.29
2018-04-09T03:45:21.072Z,1002.29
2018-04-09T03:46:29.994Z,1002.31
2018-04-09T03:47:39.965Z,1002.27
2018-04-09T03:48:49.446Z,1002.23
2018-04-09T03:49:58.904Z,1002.18
2018-04-09T03:51:08.096Z,1002.18
2018-04-09T03:52:17.809Z,1002.18
2018-04-09T03:53:27.259Z,1002.2
2018-04-09T03:54:36.712Z,1002.24
2018-04-09T03:55:46.412Z,1002.2
2018-04-09T03:56:55.850Z,1002.21
2018-04-09T03:58:05.559Z,1002.19
2018-04-09T03:59:15.694Z,1002.19
2018-04-09T04:00:25.651Z,1002.17
2018-04-09T04:01:35.398Z,1002.16
2018-04-09T04:02:44.831Z,1002.14
2018-04-09T04:03:54.797Z,1002.15
2018-04-09T04:05:04.239Z,1002.12
2018-04-09T04:06:14.200Z,1002.14
2018-04-09T04:07:24.171Z,1002.16
2018-04-09T04:08:33.627Z,1002.16
2018-04-09T04:09:43.318Z,1002.17
2018-04-09T04:10:53.365Z,1002.17
2018-04-09T04:12:03.349Z,1002.2
2018-04-09T04:13:13.047Z,1002.23
2018-04-09T04:14:22.756Z,1002.23
2018-04-09T04:15:32.725Z,1002.19
2018-04-09T04:16:42.158Z,1002.24
2018-04-09T04:17:51.615Z,1002.23
2018-04-09T04:19:01.329Z,1002.27
2018-04-09T04:20:11.294Z,1002.25
2018-04-09T04:21:21.599Z,1002.23
2018-04-09T04:22:31.045Z,1002.22
2018-04-09T04:23:40.480Z,1002.21
2018-04-09T04:24:50.181Z,1002.21
2018-04-09T04:25:59.891Z,1002.25
2018-04-09T04:27:09.842Z,1002.24
2018-04-09T04:28:19.576Z,1002.26
2018-04-09T04:29:29.696Z,1002.23
2018-04-09T04:30:39.420Z,1002.19
2018-04-09T04:31:49.135Z,1002.2
2018-04-09T04:32:59.110Z,1002.18
2018-04-09T04:34:08.812Z,1002.21
2018-04-09T04:35:18.773Z,1002.23
2018-04-09T04:36:28.736Z,1002.27
2018-04-09T04:37:38.183Z,1002.31
2018-04-09T04:38:47.882Z,1002.33
2018-04-09T04:39:57.583Z,1002.36
2018-04-09T04:41:07.017Z,1002.39
2018-04-09T04:42:16.720Z,1002.38
2018-04-09T04:43:26.678Z,1002.39
2018-04-09T04:44:36.383Z,1002.36
2018-04-09T04:45:46.357Z,1002.36
2018-04-09T04:46:56.325Z,1002.33
2018-04-09T04:48:06.321Z,1002.31
2018-04-09T04:49:16.044Z,1002.26
2018-04-09T04:50:26.043Z,1002.24
2018-04-09T04:51:36.006Z,1002.23
2018-04-09T04:52:45.711Z,1002.31
2018-04-09T04:53:55.681Z,1002.33
2018-04-09T04:55:05.647Z,1002.37
2018-04-09T04:56:15.104Z,1002.43
2018-04-09T04:57:25.066Z,1002.46
2018-04-09T04:58:35.029Z,1002.52
2018-04-09T04:59:44.732Z,1002.51
2018-04-09T05:00:54.428Z,1002.49
2018-04-09T05:02:03.870Z,1002.54
2018-04-09T05:03:13.307Z,1002.5
2018-04-09T05:04:23.343Z,1002.5
2018-04-09T05:05:33.311Z,1002.54
2018-04-09T05:06:43.275Z,1002.51
2018-04-09T05:07:52.978Z,1002.54
2018-04-09T05:09:02.685Z,1002.6
2018-04-09T05:10:12.647Z,1002.6
2018-04-09T05:11:22.092Z,1002.63
2018-04-09T05:12:32.065Z,1002.66
2018-04-09T05:13:41.259Z,1002.69
2018-04-09T05:14:50.956Z,1002.7
2018-04-09T05:16:00.660Z,1002.71
2018-04-09T05:17:10.366Z,1002.7
2018-04-09T05:18:19.832Z,1002.75
2018-04-09T05:19:29.299Z,1002.74
2018-04-09T05:20:38.803Z,1002.7
2018-04-09T05:21:48.261Z,1002.72
2018-04-09T05:22:57.970Z,1002.68
2018-04-09T05:24:07.933Z,1002.67
2018-04-09T05:25:16.853Z,1002.68
2018-04-09T05:26:26.622Z,1002.72
2018-04-09T05:27:36.585Z,1002.76
2018-04-09T05:28:46.286Z,1002.71
2018-04-09T05:29:56.275Z,1002.74
2018-04-09T05:31:05.748Z,1002.69
2018-04-09T05:32:15.205Z,1002.74
2018-04-09T05:33:25.178Z,1002.72
2018-04-09T05:34:34.906Z,1002.74
2018-04-09T05:35:44.091Z,1002.73
2018-04-09T05:36:53.800Z,1002.77
2018-04-09T05:38:03.505Z,1002.8
2018-04-09T05:39:12.697Z,1002.77
2018-04-09T05:40:22.661Z,1002.78
2018-04-09T05:41:32.140Z,1002.77
2018-04-09T05:42:42.145Z,1002.77
2018-04-09T05:43:52.121Z,1002.75
2018-04-09T05:45:02.091Z,1002.74
2018-04-09T05:46:11.538Z,1002.74
2018-04-09T05:47:21.521Z,1002.76
2018-04-09T05:48:31.488Z,1002.76
2018-04-09T05:49:41.477Z,1002.78
2018-04-09T05:50:51.187Z,1002.81
2018-04-09T05:52:00.901Z,1002.83
2018-04-09T05:53:10.613Z,1002.83
2018-04-09T05:54:20.330Z,1002.83
2018-04-09T05:55:30.126Z,1002.79
2018-04-09T05:56:39.832Z,1002.82
2018-04-09T05:57:49.273Z,1002.83
2018-04-09T05:58:59.255Z,1002.77
2018-04-09T06:00:08.963Z,1002.8
2018-04-09T06:01:18.941Z,1002.8
2018-04-09T06:02:28.923Z,1002.8
2018-04-09T06:03:38.626Z,1002.81
2018-04-09T06:04:47.824Z,1002.78
2018-04-09T06:05:57.547Z,1002.79
2018-04-09T06:07:07.259Z,1002.8
2018-04-09T06:08:16.956Z,1002.76
2018-04-09T06:09:26.670Z,1002.76
2018-04-09T06:10:36.387Z,1002.73
2018-04-09T06:11:46.213Z,1002.79
2018-04-09T06:12:55.662Z,1002.79
2018-04-09T06:14:05.658Z,1002.81
2018-04-09T06:15:15.362Z,1002.81
2018-04-09T06:16:24.846Z,1002.82
2018-04-09T06:17:34.561Z,1002.86
2018-04-09T06:18:44.287Z,1002.88
2018-04-09T06:19:54.004Z,1002.86
2018-04-09T06:21:03.474Z,1002.88
2018-04-09T06:22:13.195Z,1002.84
2018-04-09T06:23:22.984Z,1002.86
2018-04-09T06:24:33.026Z,1002.84
2018-04-09T06:25:42.490Z,1002.84
2018-04-09T06:26:52.192Z,1002.85
2018-04-09T06:28:01.664Z,1002.83
2018-04-09T06:29:11.113Z,1002.84
2018-04-09T06:30:20.843Z,1002.86
2018-04-09T06:31:30.867Z,1002.87
2018-04-09T06:32:40.579Z,1002.91
2018-04-09T06:33:50.304Z,1002.87
2018-04-09T06:35:00.018Z,1002.89
2018-04-09T06:36:09.250Z,1002.93
2018-04-09T06:37:19.361Z,1002.91
2018-04-09T06:38:29.119Z,1002.91
2018-04-09T06:39:38.599Z,1002.96
2018-04-09T06:40:48.947Z,1002.92
2018-04-09T06:41:58.921Z,1002.91
2018-04-09T06:43:08.938Z,1002.97
2018-04-09T06:44:18.925Z,1002.9
2018-04-09T06:45:28.970Z,1002.96
2018-04-09T06:46:38.690Z,1003
2018-04-09T06:47:48.225Z,1002.96
2018-04-09T06:48:57.929Z,1002.97
2018-04-09T06:50:07.710Z,1002.99
2018-04-09T06:51:17.425Z,1002.99
2018-04-09T06:52:27.464Z,1002.98
2018-04-09T06:53:37.453Z,1002.97
2018-04-09T06:54:46.672Z,1002.93
2018-04-09T06:55:56.426Z,1002.91
2018-04-09T06:57:06.410Z,1002.95
2018-04-09T06:58:16.134Z,1002.89
2018-04-09T06:59:25.875Z,1002.87
2018-04-09T07:00:35.365Z,1002.9
2018-04-09T07:01:45.329Z,1002.87
2018-04-09T07:02:55.317Z,1002.87
2018-04-09T07:04:04.796Z,1002.81
2018-04-09T07:05:14.498Z,1002.84
2018-04-09T07:06:24.215Z,1002.82
2018-04-09T07:07:34.195Z,1002.9
2018-04-09T07:08:43.900Z,1002.86
2018-04-09T07:09:53.876Z,1002.82
2018-04-09T07:11:03.787Z,1002.81
2018-04-09T07:12:13.298Z,1002.78
2018-04-09T07:13:23.585Z,1002.77
2018-04-09T07:14:33.321Z,1002.74
2018-04-09T07:15:43.322Z,1002.73
2018-04-09T07:16:53.270Z,1002.7
2018-04-09T07:18:03.049Z,1002.69
2018-04-09T07:19:13.075Z,1002.71
2018-04-09T07:20:22.846Z,1002.73
2018-04-09T07:21:32.308Z,1002.75
2018-04-09T07:22:42.287Z,1002.76
2018-04-09T07:23:52.264Z,1002.79
2018-04-09T07:25:01.982Z,1002.81
2018-04-09T07:26:11.799Z,1002.82
2018-04-09T07:27:21.513Z,1002.81
2018-04-09T07:28:31.487Z,1002.82
2018-04-09T07:29:40.682Z,1002.83
2018-04-09T07:30:50.143Z,1002.82
2018-04-09T07:31:59.869Z,1002.83
2018-04-09T07:33:09.841Z,1002.82
2018-04-09T07:34:19.816Z,1002.81
2018-04-09T07:35:29.805Z,1002.78
2018-04-09T07:36:39.531Z,1002.81
2018-04-09T07:37:49.575Z,1002.81
2018-04-09T07:38:59.561Z,1002.79
2018-04-09T07:40:09.822Z,1002.83
2018-04-09T07:41:19.873Z,1002.83
2018-04-09T07:42:29.894Z,1002.83
2018-04-09T07:43:39.616Z,1002.83
2018-04-09T07:44:49.631Z,1002.82
2018-04-09T07:45:59.310Z,1002.82
2018-04-09T07:47:09.282Z,1002.84
2018-04-09T07:48:18.988Z,1002.79
2018-04-09T07:49:28.696Z,1002.84
2018-04-09T07:50:38.750Z,1002.81
2018-04-09T07:51:48.828Z,1002.81
2018-04-09T07:52:58.886Z,1002.79
2018-04-09T07:54:08.851Z,1002.81
2018-04-09T07:55:18.584Z,1002.83
2018-04-09T07:56:28.575Z,1002.84
2018-04-09T07:57:38.543Z,1002.84
2018-04-09T07:58:48.536Z,1002.83
2018-04-09T07:59:58.518Z,1002.83
2018-04-09T08:01:08.511Z,1002.86
2018-04-09T08:02:18.497Z,1002.88
2018-04-09T08:03:27.969Z,1002.84
2018-04-09T08:04:37.973Z,1002.87
2018-04-09T08:05:48.045Z,1002.85
2018-04-09T08:06:57.761Z,1002.9
2018-04-09T08:08:07.743Z,1002.85
2018-04-09T08:09:17.723Z,1002.86
2018-04-09T08:10:27.705Z,1002.89
2018-04-09T08:11:37.155Z,1002.91
2018-04-09T08:12:47.215Z,1002.92
2018-04-09T08:13:57.216Z,1002.91
2018-04-09T08:15:07.224Z,1002.93
2018-04-09T08:16:17.214Z,1002.89
2018-04-09T08:17:27.204Z,1002.9
2018-04-09T08:18:37.177Z,1002.89
2018-04-09T08:19:47.157Z,1002.92
2018-04-09T08:20:57.140Z,1002.89
2018-04-09T08:22:07.127Z,1002.91
2018-04-09T08:23:16.584Z,1002.91
2018-04-09T08:24:26.316Z,1002.87
2018-04-09T08:25:36.301Z,1002.92
2018-04-09T08:26:46.303Z,1002.9
2018-04-09T08:27:56.288Z,1002.9
2018-04-09T08:29:06.055Z,1002.86
2018-04-09T08:30:16.040Z,1002.85
2018-04-09T08:31:26.080Z,1002.85
2018-04-09T08:32:36.065Z,1002.84
2018-04-09T08:33:45.788Z,1002.85
2018-04-09T08:34:55.823Z,1002.86
2018-04-09T08:36:05.796Z,1002.79
2018-04-09T08:37:15.786Z,1002.81
2018-04-09T08:38:25.762Z,1002.81
2018-04-09T08:39:35.240Z,1002.83
2018-04-09T08:40:45.240Z,1002.83
2018-04-09T08:41:55.428Z,1002.81
2018-04-09T08:43:05.412Z,1002.81
2018-04-09T08:44:15.405Z,1002.86
2018-04-09T08:45:25.431Z,1002.88
2018-04-09T08:46:35.410Z,1002.89
2018-04-09T08:47:45.401Z,1002.87
2018-04-09T08:48:55.372Z,1002.87
2018-04-09T08:50:05.103Z,1002.88
2018-04-09T08:51:15.147Z,1002.86
2018-04-09T08:52:24.879Z,1002.83
2018-04-09T08:53:34.879Z,1002.82
2018-04-09T08:54:45.206Z,1002.82
2018-04-09T08:55:55.183Z,1002.87
2018-04-09T08:57:05.183Z,1002.87
2018-04-09T08:58:15.165Z,1002.85
2018-04-09T08:59:24.900Z,1002.86
2018-04-09T09:00:34.905Z,1002.87
2018-04-09T09:01:44.639Z,1002.91
2018-04-09T09:02:54.617Z,1002.87
2018-04-09T09:04:04.346Z,1002.9
2018-04-09T09:05:14.067Z,1002.86
2018-04-09T09:06:24.066Z,1002.91
2018-04-09T09:07:33.789Z,1002.89
2018-04-09T09:08:43.792Z,1002.89
2018-04-09T09:09:53.996Z,1002.86
2018-04-09T09:11:04.027Z,1002.86
2018-04-09T09:12:13.740Z,1002.83
2018-04-09T09:13:23.729Z,1002.79
2018-04-09T09:14:33.716Z,1002.79
2018-04-09T09:15:43.709Z,1002.8
2018-04-09T09:16:53.427Z,1002.77
2018-04-09T09:18:03.162Z,1002.77
2018-04-09T09:19:12.884Z,1002.7
2018-04-09T09:20:22.617Z,1002.68
2018-04-09T09:21:32.333Z,1002.7
2018-04-09T09:22:42.332Z,1002.71
2018-04-09T09:23:52.070Z,1002.68
2018-04-09T09:25:01.558Z,1002.75
2018-04-09T09:26:11.011Z,1002.73
2018-04-09T09:27:20.487Z,1002.72
2018-04-09T09:28:30.474Z,1002.71
2018-04-09T09:29:40.212Z,1002.71
2018-04-09T09:30:50.189Z,1002.69
2018-04-09T09:31:59.916Z,1002.62
2018-04-09T09:33:09.394Z,1002.59
2018-04-09T09:34:19.114Z,1002.57
2018-04-09T09:35:28.849Z,1002.51
2018-04-09T09:36:38.822Z,1002.5
2018-04-09T09:37:48.814Z,1002.5
2018-04-09T09:38:58.551Z,1002.5
2018-04-09T09:40:08.276Z,1002.49
2018-04-09T09:41:18.002Z,1002.48
2018-04-09T09:42:27.762Z,1002.48
2018-04-09T09:43:37.496Z,1002.52
2018-04-09T09:44:47.239Z,1002.46
2018-04-09T09:45:56.972Z,1002.49
2018-04-09T09:47:06.967Z,1002.47
2018-04-09T09:48:16.976Z,1002.5
2018-04-09T09:49:26.295Z,1002.56
2018-04-09T09:50:36.347Z,1002.48
2018-04-09T09:51:46.307Z,1002.52
2018-04-09T09:52:56.036Z,1002.5
2018-04-09T09:54:06.035Z,1002.5
2018-04-09T09:55:15.495Z,1002.51
2018-04-09T09:56:25.246Z,1002.48
2018-04-09T09:57:35.256Z,1002.49
2018-04-09T09:58:45.249Z,1002.47
2018-04-09T09:59:54.711Z,1002.43
2018-04-09T10:01:04.456Z,1002.45
2018-04-09T10:02:13.966Z,1002.41
2018-04-09T10:03:23.972Z,1002.46
2018-04-09T10:04:33.449Z,1002.44
2018-04-09T10:05:43.456Z,1002.43
2018-04-09T10:06:53.192Z,1002.46
2018-04-09T10:08:02.930Z,1002.45
2018-04-09T10:09:12.912Z,1002.44
2018-04-09T10:10:22.936Z,1002.4
2018-04-09T10:11:32.954Z,1002.42
2018-04-09T10:12:42.936Z,1002.41
2018-04-09T10:13:52.943Z,1002.42
2018-04-09T10:15:02.675Z,1002.39
2018-04-09T10:16:12.407Z,1002.38
2018-04-09T10:17:22.397Z,1002.32
2018-04-09T10:18:32.174Z,1002.28
2018-04-09T10:19:42.197Z,1002.24
2018-04-09T10:20:51.974Z,1002.23
2018-04-09T10:22:01.736Z,1002.24
2018-04-09T10:23:11.211Z,1002.31
2018-04-09T10:24:21.258Z,1002.34
2018-04-09T10:25:31.256Z,1002.33
2018-04-09T10:26:40.973Z,1002.35
2018-04-09T10:27:50.730Z,1002.37
2018-04-09T10:29:00.445Z,1002.28
2018-04-09T10:30:09.928Z,1002.3
2018-04-09T10:31:19.683Z,1002.32
2018-04-09T10:32:29.198Z,1002.31
2018-04-09T10:33:38.673Z,1002.3
2018-04-09T10:34:48.436Z,1002.25
2018-04-09T10:35:58.147Z,1002.27
2018-04-09T10:37:07.876Z,1002.27
2018-04-09T10:38:17.635Z,1002.27
2018-04-09T10:39:27.382Z,1002.23
2018-04-09T10:40:37.142Z,1002.29
2018-04-09T10:41:46.911Z,1002.28
2018-04-09T10:42:56.913Z,1002.27
2018-04-09T10:44:06.912Z,1002.26
2018-04-09T10:45:16.919Z,1002.22
2018-04-09T10:46:26.687Z,1002.19
2018-04-09T10:47:36.732Z,1002.19
2018-04-09T10:48:46.206Z,1002.18
2018-04-09T10:49:56.002Z,1002.16
2018-04-09T10:51:05.726Z,1002.14
2018-04-09T10:52:15.696Z,1002.08
2018-04-09T10:53:25.687Z,1002.09
2018-04-09T10:54:35.630Z,1002.11
2018-04-09T10:55:45.635Z,1002.16
2018-04-09T10:56:55.369Z,1002.16
2018-04-09T10:58:05.375Z,1002.12
2018-04-09T10:59:15.113Z,1002.17
2018-04-09T11:00:24.578Z,1002.15
2018-04-09T11:01:34.074Z,1002.13
2018-04-09T11:02:44.150Z,1002.08
2018-04-09T11:03:54.233Z,1002.05
2018-04-09T11:05:04.740Z,1002.09
2018-04-09T11:06:14.196Z,1002.06
2018-04-09T11:07:23.927Z,1002.01
2018-04-09T11:08:33.415Z,1001.99
2018-04-09T11:09:43.165Z,1002
2018-04-09T11:10:53.393Z,1001.94
2018-04-09T11:12:03.132Z,1001.96
2018-04-09T11:13:12.628Z,1001.99
2018-04-09T11:14:22.629Z,1001.97
2018-04-09T11:15:32.623Z,1001.98
2018-04-09T11:16:42.606Z,1001.97
2018-04-09T11:17:52.373Z,1001.96
2018-04-09T11:19:02.093Z,1001.98
2018-04-09T11:20:11.870Z,1002.01
2018-04-09T11:21:21.891Z,1002
2018-04-09T11:22:31.622Z,1001.96
2018-04-09T11:23:41.102Z,1001.99
2018-04-09T11:24:50.837Z,1001.94
2018-04-09T11:26:00.583Z,1001.95
2018-04-09T11:27:10.365Z,1001.93
2018-04-09T11:28:20.356Z,1001.91
2018-04-09T11:29:30.362Z,1001.93
2018-04-09T11:30:40.364Z,1001.9
2018-04-09T11:31:49.821Z,1001.93
2018-04-09T11:32:59.562Z,1001.93
2018-04-09T11:34:09.284Z,1001.89
2018-04-09T11:35:19.040Z,1001.9
2018-04-09T11:36:28.807Z,1001.89
2018-04-09T11:37:38.906Z,1001.9
2018-04-09T11:38:48.939Z,1001.89
2018-04-09T11:39:58.931Z,1001.89
2018-04-09T11:41:08.912Z,1001.9
2018-04-09T11:42:18.940Z,1001.86
2018-04-09T11:43:29.053Z,1001.83
2018-04-09T11:44:39.294Z,1001.8
2018-04-09T11:45:49.309Z,1001.86
2018-04-09T11:46:59.330Z,1001.81
2018-04-09T11:48:09.653Z,1001.82
2018-04-09T11:49:19.169Z,1001.81
2018-04-09T11:50:28.909Z,1001.82
2018-04-09T11:51:38.141Z,1001.83
2018-04-09T11:52:47.885Z,1001.87
2018-04-09T11:53:57.616Z,1001.9
2018-04-09T11:55:07.352Z,1001.9
2018-04-09T11:56:17.350Z,1001.9
2018-04-09T11:57:27.088Z,1001.96
2018-04-09T11:58:36.849Z,1001.91
2018-04-09T11:59:46.877Z,1001.92
2018-04-09T12:00:56.904Z,1001.89
2018-04-09T12:02:06.680Z,1001.91
2018-04-09T12:03:16.910Z,1001.87
2018-04-09T12:04:26.893Z,1001.9
2018-04-09T12:05:36.662Z,1001.93
2018-04-09T12:06:46.133Z,1001.91
2018-04-09T12:07:55.640Z,1001.96
2018-04-09T12:09:05.625Z,1001.97
2018-04-09T12:10:15.366Z,1001.94
2018-04-09T12:11:25.232Z,1001.94
2018-04-09T12:12:34.469Z,1001.92
2018-04-09T12:13:44.067Z,1001.88
2018-04-09T12:14:54.058Z,1001.84
2018-04-09T12:16:03.789Z,1001.88
2018-04-09T12:17:13.333Z,1001.89
2018-04-09T12:18:23.051Z,1001.85
2018-04-09T12:19:32.540Z,1001.81
2018-04-09T12:20:42.537Z,1001.81
2018-04-09T12:21:52.274Z,1001.79
2018-04-09T12:23:02.290Z,1001.83
2018-04-09T12:24:11.748Z,1001.82
2018-04-09T12:25:21.257Z,1001.79
2018-04-09T12:26:31.013Z,1001.74
2018-04-09T12:27:40.001Z,1001.73
2018-04-09T12:28:49.804Z,1001.75
2018-04-09T12:29:59.803Z,1001.73
2018-04-09T12:31:09.893Z,1001.74
2018-04-09T12:32:19.469Z,1001.75
2018-04-09T12:33:29.500Z,1001.8
2018-04-09T12:34:38.760Z,1001.77
2018-04-09T12:35:48.624Z,1001.7
2018-04-09T12:36:58.095Z,1001.76
2018-04-09T12:38:07.081Z,1001.72
2018-04-09T12:39:16.801Z,1001.71
2018-04-09T12:40:26.065Z,1001.72
2018-04-09T12:41:36.043Z,1001.65
2018-04-09T12:42:45.285Z,1001.64
2018-04-09T12:43:55.277Z,1001.65
2018-04-09T12:45:04.743Z,1001.68
2018-04-09T12:46:14.752Z,1001.64
2018-04-09T12:47:24.494Z,1001.61
2018-04-09T12:48:34.498Z,1001.61
2018-04-09T12:49:44.500Z,1001.59
2018-04-09T12:50:54.504Z,1001.59
2018-04-09T12:52:04.237Z,1001.56
2018-04-09T12:53:13.712Z,1001.53
2018-04-09T12:54:23.712Z,1001.5
2018-04-09T12:55:33.750Z,1001.51
2018-04-09T12:56:43.744Z,1001.51
2018-04-09T12:57:53.716Z,1001.51
2018-04-09T12:59:03.755Z,1001.5
2018-04-09T13:00:13.977Z,1001.5
2018-04-09T13:01:24.201Z,1001.48
2018-04-09T13:02:34.146Z,1001.52
2018-04-09T13:03:44.168Z,1001.48
2018-04-09T13:04:54.161Z,1001.48
2018-04-09T13:06:04.198Z,1001.48
2018-04-09T13:07:14.185Z,1001.42
2018-04-09T13:08:23.918Z,1001.42
2018-04-09T13:09:33.888Z,1001.45
2018-04-09T13:10:43.884Z,1001.45
2018-04-09T13:11:53.625Z,1001.43
2018-04-09T13:13:03.625Z,1001.42
2018-04-09T13:14:13.369Z,1001.41
2018-04-09T13:15:23.346Z,1001.39
2018-04-09T13:16:33.366Z,1001.4
2018-04-09T13:17:43.493Z,1001.42
2018-04-09T13:18:53.477Z,1001.4
2018-04-09T13:20:03.479Z,1001.45
2018-04-09T13:21:13.206Z,1001.39
2018-04-09T13:22:23.206Z,1001.41
2018-04-09T13:23:32.933Z,1001.41
2018-04-09T13:24:42.931Z,1001.4
2018-04-09T13:25:52.702Z,1001.38
2018-04-09T13:27:02.437Z,1001.35
2018-04-09T13:28:12.178Z,1001.35
2018-04-09T13:29:22.190Z,1001.37
2018-04-09T13:30:31.998Z,1001.32
2018-04-09T13:31:41.993Z,1001.22
2018-04-09T13:32:51.731Z,1001.27
2018-04-09T13:34:01.711Z,1001.29
2018-04-09T13:35:11.695Z,1001.22
2018-04-09T13:36:21.443Z,1001.19
2018-04-09T13:37:31.420Z,1001.19
2018-04-09T13:38:41.388Z,1001.21
2018-04-09T13:39:51.103Z,1001.19
2018-04-09T13:41:01.148Z,1001.15
2018-04-09T13:42:10.940Z,1001.19
2018-04-09T13:43:20.999Z,1001.17
2018-04-09T13:44:30.480Z,1001.13
2018-04-09T13:45:40.454Z,1001.05
2018-04-09T13:46:50.444Z,1001.09
2018-04-09T13:48:00.188Z,1001.06
2018-04-09T13:49:10.189Z,1001.02
2018-04-09T13:50:20.177Z,1001.06
2018-04-09T13:51:30.184Z,1001.06
2018-04-09T13:52:39.940Z,1001.07
2018-04-09T13:53:49.674Z,1001
2018-04-09T13:54:59.661Z,1001.08
2018-04-09T13:56:09.138Z,1001.04
2018-04-09T13:57:19.143Z,1001.01
2018-04-09T13:58:29.121Z,1000.99
2018-04-09T13:59:38.859Z,1000.96
2018-04-09T14:00:48.857Z,1001.02
2018-04-09T14:01:58.855Z,1000.95
2018-04-09T14:03:08.842Z,1001.06
2018-04-09T14:04:18.582Z,1000.98
2018-04-09T14:05:28.598Z,1001
2018-04-09T14:06:37.562Z,1000.99
2018-04-09T14:07:47.560Z,1000.97